sensor_id;sensor_type;location;lat;lon;timestamp;P1;durP1;ratioP1;P2;durP2;ratioP2
78778;SDS011;68121;52.404;5.318;2023-12-04T00:01:25;6.95;;;3.08;;
78778;SDS011;68121;52.404;5.318;2023-12-04T00:03:51;11.73;;;5.05;;
78778;SDS011;68121;52.404;5.318;2023-12-04T00:06:18;7.53;;;3.88;;
78778;SDS011;68121;52.404;5.318;2023-12-04T00:08:44;12.52;;;4.57;;
78778;SDS011;68121;52.404;5.318;2023-12-04T00:11:11;13.00;;;5.45;;
78778;SDS011;68121;52.404;5.318;2023-12-04T00:13:37;11.00;;;4.45;;
78778;SDS011;68121;52.404;5.318;2023-12-04T00:16:03;6.65;;;3.45;;
78778;SDS011;68121;52.404;5.318;2023-12-04T00:18:29;10.60;;;6.00;;
78778;SDS011;68121;52.404;5.318;2023-12-04T00:20:55;12.48;;;5.78;;
78778;SDS011;68121;52.404;5.318;2023-12-04T00:23:21;11.55;;;4.95;;
78778;SDS011;68121;52.404;5.318;2023-12-04T00:25:47;14.07;;;5.82;;
78778;SDS011;68121;52.404;5.318;2023-12-04T00:28:13;11.32;;;4.78;;
78778;SDS011;68121;52.404;5.318;2023-12-04T00:30:39;9.27;;;4.40;;
78778;SDS011;68121;52.404;5.318;2023-12-04T00:33:05;9.57;;;5.00;;
78778;SDS011;68121;52.404;5.318;2023-12-04T00:35:31;12.55;;;4.82;;
78778;SDS011;68121;52.404;5.318;2023-12-04T00:37:57;11.13;;;4.57;;
78778;SDS011;68121;52.404;5.318;2023-12-04T00:40:23;13.57;;;4.50;;
78778;SDS011;68121;52.404;5.318;2023-12-04T00:42:50;12.48;;;4.95;;
78778;SDS011;68121;52.404;5.318;2023-12-04T00:45:16;11.77;;;5.20;;
78778;SDS011;68121;52.404;5.318;2023-12-04T00:47:42;13.90;;;5.22;;
78778;SDS011;68121;52.404;5.318;2023-12-04T00:50:08;7.20;;;3.25;;
78778;SDS011;68121;52.404;5.318;2023-12-04T00:52:36;12.93;;;4.95;;
78778;SDS011;68121;52.404;5.318;2023-12-04T00:55:02;13.38;;;4.85;;
78778;SDS011;68121;52.404;5.318;2023-12-04T00:57:28;10.85;;;5.25;;
78778;SDS011;68121;52.404;5.318;2023-12-04T00:59:54;9.52;;;3.88;;
78778;SDS011;68121;52.404;5.318;2023-12-04T01:02:20;9.68;;;4.30;;
78778;SDS011;68121;52.404;5.318;2023-12-04T01:04:46;11.80;;;4.75;;
78778;SDS011;68121;52.404;5.318;2023-12-04T01:07:12;13.05;;;4.50;;
78778;SDS011;68121;52.404;5.318;2023-12-04T01:09:39;8.60;;;4.00;;
78778;SDS011;68121;52.404;5.318;2023-12-04T01:12:05;12.13;;;5.45;;
78778;SDS011;68121;52.404;5.318;2023-12-04T01:14:31;15.00;;;4.05;;
78778;SDS011;68121;52.404;5.318;2023-12-04T01:16:58;10.32;;;4.10;;
78778;SDS011;68121;52.404;5.318;2023-12-04T01:19:24;8.48;;;3.83;;
78778;SDS011;68121;52.404;5.318;2023-12-04T01:21:50;8.38;;;4.68;;
78778;SDS011;68121;52.404;5.318;2023-12-04T01:24:16;11.40;;;4.68;;
78778;SDS011;68121;52.404;5.318;2023-12-04T01:26:42;10.48;;;4.35;;
78778;SDS011;68121;52.404;5.318;2023-12-04T01:29:08;11.52;;;5.80;;
78778;SDS011;68121;52.404;5.318;2023-12-04T01:31:34;12.80;;;5.85;;
78778;SDS011;68121;52.404;5.318;2023-12-04T01:34:00;13.43;;;5.38;;
78778;SDS011;68121;52.404;5.318;2023-12-04T01:36:27;10.75;;;5.40;;
78778;SDS011;68121;52.404;5.318;2023-12-04T01:38:53;11.50;;;3.90;;
78778;SDS011;68121;52.404;5.318;2023-12-04T01:41:19;12.00;;;5.10;;
78778;SDS011;68121;52.404;5.318;2023-12-04T01:43:45;8.77;;;3.30;;
78778;SDS011;68121;52.404;5.318;2023-12-04T01:46:11;8.80;;;4.47;;
78778;SDS011;68121;52.404;5.318;2023-12-04T01:48:41;13.63;;;4.95;;
78778;SDS011;68121;52.404;5.318;2023-12-04T01:51:07;12.95;;;4.97;;
78778;SDS011;68121;52.404;5.318;2023-12-04T01:53:36;11.15;;;5.30;;
78778;SDS011;68121;52.404;5.318;2023-12-04T01:56:04;8.43;;;3.75;;
78778;SDS011;68121;52.404;5.318;2023-12-04T01:58:32;12.85;;;5.00;;
78778;SDS011;68121;52.404;5.318;2023-12-04T02:00:58;9.50;;;3.65;;
78778;SDS011;68121;52.404;5.318;2023-12-04T02:03:24;11.80;;;6.22;;
78778;SDS011;68121;52.404;5.318;2023-12-04T02:05:51;14.18;;;5.97;;
78778;SDS011;68121;52.404;5.318;2023-12-04T02:08:18;13.20;;;5.82;;
78778;SDS011;68121;52.404;5.318;2023-12-04T02:10:44;13.23;;;5.22;;
78778;SDS011;68121;52.404;5.318;2023-12-04T02:13:10;14.38;;;6.18;;
78778;SDS011;68121;52.404;5.318;2023-12-04T02:15:37;13.55;;;5.20;;
78778;SDS011;68121;52.404;5.318;2023-12-04T02:18:03;10.90;;;4.43;;
78778;SDS011;68121;52.404;5.318;2023-12-04T02:20:32;16.35;;;6.63;;
78778;SDS011;68121;52.404;5.318;2023-12-04T02:23:00;12.85;;;5.00;;
78778;SDS011;68121;52.404;5.318;2023-12-04T02:25:27;10.65;;;4.63;;
78778;SDS011;68121;52.404;5.318;2023-12-04T02:27:54;10.43;;;4.07;;
78778;SDS011;68121;52.404;5.318;2023-12-04T02:30:23;11.70;;;5.60;;
78778;SDS011;68121;52.404;5.318;2023-12-04T02:32:50;10.20;;;4.30;;
78778;SDS011;68121;52.404;5.318;2023-12-04T02:35:20;10.05;;;5.00;;
78778;SDS011;68121;52.404;5.318;2023-12-04T02:37:48;13.57;;;5.72;;
78778;SDS011;68121;52.404;5.318;2023-12-04T02:40:14;5.35;;;3.03;;
78778;SDS011;68121;52.404;5.318;2023-12-04T02:42:41;11.27;;;5.10;;
78778;SDS011;68121;52.404;5.318;2023-12-04T02:45:07;13.40;;;4.72;;
78778;SDS011;68121;52.404;5.318;2023-12-04T02:47:33;13.32;;;6.00;;
78778;SDS011;68121;52.404;5.318;2023-12-04T02:50:00;14.18;;;6.65;;
78778;SDS011;68121;52.404;5.318;2023-12-04T02:52:26;14.45;;;6.40;;
78778;SDS011;68121;52.404;5.318;2023-12-04T02:54:52;9.75;;;4.38;;
78778;SDS011;68121;52.404;5.318;2023-12-04T02:57:18;18.02;;;6.80;;
78778;SDS011;68121;52.404;5.318;2023-12-04T02:59:44;6.65;;;3.42;;
78778;SDS011;68121;52.404;5.318;2023-12-04T03:02:10;15.13;;;6.95;;
78778;SDS011;68121;52.404;5.318;2023-12-04T03:04:36;8.15;;;4.57;;
78778;SDS011;68121;52.404;5.318;2023-12-04T03:07:02;11.98;;;5.90;;
78778;SDS011;68121;52.404;5.318;2023-12-04T03:09:28;11.30;;;4.18;;
78778;SDS011;68121;52.404;5.318;2023-12-04T03:11:54;16.88;;;5.90;;
78778;SDS011;68121;52.404;5.318;2023-12-04T03:14:20;12.07;;;5.32;;
78778;SDS011;68121;52.404;5.318;2023-12-04T03:16:46;9.32;;;3.58;;
78778;SDS011;68121;52.404;5.318;2023-12-04T03:19:12;17.20;;;5.43;;
78778;SDS011;68121;52.404;5.318;2023-12-04T03:21:38;10.65;;;4.50;;
78778;SDS011;68121;52.404;5.318;2023-12-04T03:24:04;12.13;;;4.57;;
78778;SDS011;68121;52.404;5.318;2023-12-04T03:26:30;12.35;;;6.15;;
78778;SDS011;68121;52.404;5.318;2023-12-04T03:28:56;13.15;;;6.03;;
78778;SDS011;68121;52.404;5.318;2023-12-04T03:31:22;14.68;;;6.13;;
78778;SDS011;68121;52.404;5.318;2023-12-04T03:33:49;14.50;;;6.35;;
78778;SDS011;68121;52.404;5.318;2023-12-04T03:36:15;12.25;;;4.80;;
78778;SDS011;68121;52.404;5.318;2023-12-04T03:38:41;11.02;;;5.63;;
78778;SDS011;68121;52.404;5.318;2023-12-04T03:41:16;12.80;;;4.75;;
78778;SDS011;68121;52.404;5.318;2023-12-04T03:43:42;12.90;;;5.70;;
78778;SDS011;68121;52.404;5.318;2023-12-04T03:46:08;15.00;;;5.43;;
78778;SDS011;68121;52.404;5.318;2023-12-04T03:48:34;14.30;;;4.38;;
78778;SDS011;68121;52.404;5.318;2023-12-04T03:51:01;12.65;;;6.07;;
78778;SDS011;68121;52.404;5.318;2023-12-04T03:53:27;10.38;;;4.28;;
78778;SDS011;68121;52.404;5.318;2023-12-04T03:55:53;12.15;;;5.38;;
78778;SDS011;68121;52.404;5.318;2023-12-04T03:58:19;12.45;;;5.65;;
78778;SDS011;68121;52.404;5.318;2023-12-04T04:00:45;9.50;;;4.47;;
78778;SDS011;68121;52.404;5.318;2023-12-04T04:03:11;9.70;;;4.32;;
78778;SDS011;68121;52.404;5.318;2023-12-04T04:05:37;11.65;;;4.50;;
78778;SDS011;68121;52.404;5.318;2023-12-04T04:08:03;11.32;;;4.88;;
78778;SDS011;68121;52.404;5.318;2023-12-04T04:10:31;9.63;;;4.53;;
78778;SDS011;68121;52.404;5.318;2023-12-04T04:12:57;9.63;;;4.18;;
78778;SDS011;68121;52.404;5.318;2023-12-04T04:15:23;12.57;;;5.80;;
78778;SDS011;68121;52.404;5.318;2023-12-04T04:17:49;8.15;;;3.08;;
78778;SDS011;68121;52.404;5.318;2023-12-04T04:20:15;11.35;;;5.90;;
78778;SDS011;68121;52.404;5.318;2023-12-04T04:22:41;8.45;;;3.78;;
78778;SDS011;68121;52.404;5.318;2023-12-04T04:25:08;16.92;;;6.55;;
78778;SDS011;68121;52.404;5.318;2023-12-04T04:27:34;8.65;;;2.75;;
78778;SDS011;68121;52.404;5.318;2023-12-04T04:30:01;11.18;;;4.90;;
78778;SDS011;68121;52.404;5.318;2023-12-04T04:32:27;13.23;;;4.65;;
78778;SDS011;68121;52.404;5.318;2023-12-04T04:34:53;9.15;;;2.95;;
78778;SDS011;68121;52.404;5.318;2023-12-04T04:37:19;7.72;;;3.90;;
78778;SDS011;68121;52.404;5.318;2023-12-04T04:39:45;9.90;;;3.85;;
78778;SDS011;68121;52.404;5.318;2023-12-04T04:42:11;7.75;;;3.78;;
78778;SDS011;68121;52.404;5.318;2023-12-04T04:44:38;9.77;;;4.95;;
78778;SDS011;68121;52.404;5.318;2023-12-04T04:47:04;8.95;;;3.70;;
78778;SDS011;68121;52.404;5.318;2023-12-04T04:49:30;9.20;;;3.78;;
78778;SDS011;68121;52.404;5.318;2023-12-04T04:51:56;10.88;;;3.45;;
78778;SDS011;68121;52.404;5.318;2023-12-04T04:54:22;8.25;;;4.05;;
78778;SDS011;68121;52.404;5.318;2023-12-04T04:56:48;11.50;;;4.95;;
78778;SDS011;68121;52.404;5.318;2023-12-04T04:59:14;10.65;;;4.53;;
78778;SDS011;68121;52.404;5.318;2023-12-04T05:01:40;7.47;;;3.38;;
78778;SDS011;68121;52.404;5.318;2023-12-04T05:04:06;11.18;;;4.97;;
78778;SDS011;68121;52.404;5.318;2023-12-04T05:06:32;11.38;;;4.93;;
78778;SDS011;68121;52.404;5.318;2023-12-04T05:08:58;8.95;;;4.32;;
78778;SDS011;68121;52.404;5.318;2023-12-04T05:11:24;8.65;;;3.97;;
78778;SDS011;68121;52.404;5.318;2023-12-04T05:13:50;9.60;;;4.32;;
78778;SDS011;68121;52.404;5.318;2023-12-04T05:16:16;6.78;;;2.97;;
78778;SDS011;68121;52.404;5.318;2023-12-04T05:18:42;9.68;;;4.20;;
78778;SDS011;68121;52.404;5.318;2023-12-04T05:21:08;7.60;;;3.70;;
78778;SDS011;68121;52.404;5.318;2023-12-04T05:23:35;7.18;;;2.90;;
78778;SDS011;68121;52.404;5.318;2023-12-04T05:26:02;9.77;;;4.35;;
78778;SDS011;68121;52.404;5.318;2023-12-04T05:28:28;6.32;;;3.92;;
78778;SDS011;68121;52.404;5.318;2023-12-04T05:30:54;8.98;;;4.18;;
78778;SDS011;68121;52.404;5.318;2023-12-04T05:33:20;8.57;;;3.38;;
78778;SDS011;68121;52.404;5.318;2023-12-04T05:35:49;4.93;;;2.92;;
78778;SDS011;68121;52.404;5.318;2023-12-04T05:38:18;5.63;;;2.05;;
78778;SDS011;68121;52.404;5.318;2023-12-04T05:40:45;5.95;;;3.92;;
78778;SDS011;68121;52.404;5.318;2023-12-04T05:43:11;6.57;;;3.05;;
78778;SDS011;68121;52.404;5.318;2023-12-04T05:45:38;6.82;;;3.70;;
78778;SDS011;68121;52.404;5.318;2023-12-04T05:48:04;7.85;;;3.55;;
78778;SDS011;68121;52.404;5.318;2023-12-04T05:50:30;10.88;;;5.20;;
78778;SDS011;68121;52.404;5.318;2023-12-04T05:52:57;9.13;;;4.72;;
78778;SDS011;68121;52.404;5.318;2023-12-04T05:55:24;4.60;;;2.03;;
78778;SDS011;68121;52.404;5.318;2023-12-04T05:57:50;7.22;;;4.47;;
78778;SDS011;68121;52.404;5.318;2023-12-04T06:00:16;9.82;;;4.63;;
78778;SDS011;68121;52.404;5.318;2023-12-04T06:02:42;9.93;;;5.32;;
78778;SDS011;68121;52.404;5.318;2023-12-04T06:05:09;7.35;;;3.22;;
78778;SDS011;68121;52.404;5.318;2023-12-04T06:07:36;5.53;;;2.85;;
78778;SDS011;68121;52.404;5.318;2023-12-04T06:10:03;8.02;;;2.80;;
78778;SDS011;68121;52.404;5.318;2023-12-04T06:12:33;8.68;;;3.50;;
78778;SDS011;68121;52.404;5.318;2023-12-04T06:14:59;6.68;;;2.35;;
78778;SDS011;68121;52.404;5.318;2023-12-04T06:17:26;9.30;;;3.83;;
78778;SDS011;68121;52.404;5.318;2023-12-04T06:19:53;7.90;;;2.78;;
78778;SDS011;68121;52.404;5.318;2023-12-04T06:22:19;6.88;;;2.65;;
78778;SDS011;68121;52.404;5.318;2023-12-04T06:24:47;6.55;;;3.40;;
78778;SDS011;68121;52.404;5.318;2023-12-04T06:27:17;4.57;;;2.65;;
78778;SDS011;68121;52.404;5.318;2023-12-04T06:29:48;6.10;;;3.75;;
78778;SDS011;68121;52.404;5.318;2023-12-04T06:32:14;5.10;;;2.55;;
78778;SDS011;68121;52.404;5.318;2023-12-04T06:34:41;8.13;;;3.33;;
78778;SDS011;68121;52.404;5.318;2023-12-04T06:37:10;13.02;;;3.45;;
78778;SDS011;68121;52.404;5.318;2023-12-04T06:39:38;5.90;;;3.30;;
78778;SDS011;68121;52.404;5.318;2023-12-04T06:42:05;10.10;;;4.07;;
78778;SDS011;68121;52.404;5.318;2023-12-04T06:44:35;9.18;;;3.83;;
78778;SDS011;68121;52.404;5.318;2023-12-04T06:47:01;5.47;;;2.58;;
78778;SDS011;68121;52.404;5.318;2023-12-04T06:49:29;7.40;;;3.70;;
78778;SDS011;68121;52.404;5.318;2023-12-04T06:51:56;5.75;;;3.35;;
78778;SDS011;68121;52.404;5.318;2023-12-04T06:54:23;12.02;;;4.13;;
78778;SDS011;68121;52.404;5.318;2023-12-04T06:56:50;7.13;;;4.07;;
78778;SDS011;68121;52.404;5.318;2023-12-04T06:59:19;8.40;;;3.63;;
78778;SDS011;68121;52.404;5.318;2023-12-04T07:01:45;8.57;;;3.22;;
78778;SDS011;68121;52.404;5.318;2023-12-04T07:04:11;9.77;;;4.30;;
78778;SDS011;68121;52.404;5.318;2023-12-04T07:06:41;8.07;;;3.70;;
78778;SDS011;68121;52.404;5.318;2023-12-04T07:09:08;6.28;;;3.33;;
78778;SDS011;68121;52.404;5.318;2023-12-04T07:11:34;6.90;;;3.45;;
78778;SDS011;68121;52.404;5.318;2023-12-04T07:14:00;11.15;;;4.05;;
78778;SDS011;68121;52.404;5.318;2023-12-04T07:16:26;6.00;;;3.30;;
78778;SDS011;68121;52.404;5.318;2023-12-04T07:18:53;6.80;;;4.03;;
78778;SDS011;68121;52.404;5.318;2023-12-04T07:21:19;9.15;;;4.20;;
78778;SDS011;68121;52.404;5.318;2023-12-04T07:23:45;9.27;;;4.40;;
78778;SDS011;68121;52.404;5.318;2023-12-04T07:26:12;11.20;;;4.40;;
78778;SDS011;68121;52.404;5.318;2023-12-04T07:28:38;9.90;;;3.80;;
78778;SDS011;68121;52.404;5.318;2023-12-04T07:31:04;8.57;;;3.40;;
78778;SDS011;68121;52.404;5.318;2023-12-04T07:33:30;6.07;;;3.20;;
78778;SDS011;68121;52.404;5.318;2023-12-04T07:35:56;5.97;;;2.58;;
78778;SDS011;68121;52.404;5.318;2023-12-04T07:38:22;2.85;;;2.00;;
78778;SDS011;68121;52.404;5.318;2023-12-04T07:40:48;7.28;;;3.95;;
78778;SDS011;68121;52.404;5.318;2023-12-04T07:43:14;6.15;;;3.65;;
78778;SDS011;68121;52.404;5.318;2023-12-04T07:45:41;5.97;;;2.88;;
78778;SDS011;68121;52.404;5.318;2023-12-04T07:48:07;7.07;;;3.40;;
78778;SDS011;68121;52.404;5.318;2023-12-04T07:50:33;6.93;;;4.10;;
78778;SDS011;68121;52.404;5.318;2023-12-04T07:52:59;7.55;;;3.53;;
78778;SDS011;68121;52.404;5.318;2023-12-04T07:55:25;4.93;;;2.10;;
78778;SDS011;68121;52.404;5.318;2023-12-04T07:57:51;8.95;;;4.05;;
78778;SDS011;68121;52.404;5.318;2023-12-04T08:00:18;8.52;;;3.28;;
78778;SDS011;68121;52.404;5.318;2023-12-04T08:02:44;5.80;;;2.28;;
78778;SDS011;68121;52.404;5.318;2023-12-04T08:05:11;4.63;;;1.80;;
78778;SDS011;68121;52.404;5.318;2023-12-04T08:07:38;3.97;;;2.20;;
78778;SDS011;68121;52.404;5.318;2023-12-04T08:10:04;6.70;;;3.13;;
78778;SDS011;68121;52.404;5.318;2023-12-04T08:12:31;5.15;;;2.10;;
78778;SDS011;68121;52.404;5.318;2023-12-04T08:14:59;8.80;;;3.45;;
78778;SDS011;68121;52.404;5.318;2023-12-04T08:17:25;6.85;;;3.35;;
78778;SDS011;68121;52.404;5.318;2023-12-04T08:19:51;3.92;;;2.13;;
78778;SDS011;68121;52.404;5.318;2023-12-04T08:22:17;6.40;;;2.80;;
78778;SDS011;68121;52.404;5.318;2023-12-04T08:24:43;7.05;;;2.72;;
78778;SDS011;68121;52.404;5.318;2023-12-04T08:27:09;5.85;;;2.75;;
78778;SDS011;68121;52.404;5.318;2023-12-04T08:29:36;7.60;;;3.03;;
78778;SDS011;68121;52.404;5.318;2023-12-04T08:32:02;5.22;;;2.50;;
78778;SDS011;68121;52.404;5.318;2023-12-04T08:34:28;6.75;;;3.40;;
78778;SDS011;68121;52.404;5.318;2023-12-04T08:36:54;5.55;;;3.17;;
78778;SDS011;68121;52.404;5.318;2023-12-04T08:39:20;9.52;;;3.65;;
78778;SDS011;68121;52.404;5.318;2023-12-04T08:41:47;6.25;;;2.85;;
78778;SDS011;68121;52.404;5.318;2023-12-04T08:44:14;5.88;;;2.90;;
78778;SDS011;68121;52.404;5.318;2023-12-04T08:46:41;5.78;;;3.13;;
78778;SDS011;68121;52.404;5.318;2023-12-04T08:49:07;5.68;;;3.38;;
78778;SDS011;68121;52.404;5.318;2023-12-04T08:51:33;7.35;;;3.13;;
78778;SDS011;68121;52.404;5.318;2023-12-04T08:53:59;6.65;;;2.90;;
78778;SDS011;68121;52.404;5.318;2023-12-04T08:56:26;8.48;;;3.05;;
78778;SDS011;68121;52.404;5.318;2023-12-04T08:58:52;6.20;;;2.30;;
78778;SDS011;68121;52.404;5.318;2023-12-04T09:01:18;8.15;;;3.28;;
78778;SDS011;68121;52.404;5.318;2023-12-04T09:03:44;7.82;;;3.58;;
78778;SDS011;68121;52.404;5.318;2023-12-04T09:06:10;7.43;;;3.67;;
78778;SDS011;68121;52.404;5.318;2023-12-04T09:08:36;7.28;;;3.97;;
78778;SDS011;68121;52.404;5.318;2023-12-04T09:13:26;6.63;;;3.30;;
78778;SDS011;68121;52.404;5.318;2023-12-04T09:15:54;6.38;;;3.88;;
78778;SDS011;68121;52.404;5.318;2023-12-04T09:18:20;11.70;;;3.60;;
78778;SDS011;68121;52.404;5.318;2023-12-04T09:20:46;5.30;;;2.20;;
78778;SDS011;68121;52.404;5.318;2023-12-04T09:23:12;6.63;;;3.30;;
78778;SDS011;68121;52.404;5.318;2023-12-04T09:25:38;6.72;;;2.92;;
78778;SDS011;68121;52.404;5.318;2023-12-04T09:28:04;5.03;;;2.92;;
78778;SDS011;68121;52.404;5.318;2023-12-04T09:30:31;4.38;;;2.10;;
78778;SDS011;68121;52.404;5.318;2023-12-04T09:32:57;6.70;;;3.92;;
78778;SDS011;68121;52.404;5.318;2023-12-04T09:35:23;7.28;;;3.28;;
78778;SDS011;68121;52.404;5.318;2023-12-04T09:37:49;5.40;;;2.75;;
78778;SDS011;68121;52.404;5.318;2023-12-04T09:40:16;3.88;;;2.33;;
78778;SDS011;68121;52.404;5.318;2023-12-04T09:42:42;4.40;;;2.58;;
78778;SDS011;68121;52.404;5.318;2023-12-04T09:45:08;7.15;;;2.38;;
78778;SDS011;68121;52.404;5.318;2023-12-04T09:47:35;5.72;;;3.50;;
78778;SDS011;68121;52.404;5.318;2023-12-04T09:50:02;7.05;;;3.00;;
78778;SDS011;68121;52.404;5.318;2023-12-04T09:52:28;4.65;;;2.42;;
78778;SDS011;68121;52.404;5.318;2023-12-04T09:54:55;4.10;;;2.20;;
78778;SDS011;68121;52.404;5.318;2023-12-04T09:57:21;3.35;;;2.03;;
78778;SDS011;68121;52.404;5.318;2023-12-04T09:59:50;4.55;;;2.17;;
78778;SDS011;68121;52.404;5.318;2023-12-04T10:02:17;6.50;;;3.08;;
78778;SDS011;68121;52.404;5.318;2023-12-04T10:04:44;3.22;;;1.88;;
78778;SDS011;68121;52.404;5.318;2023-12-04T10:07:11;5.47;;;2.25;;
78778;SDS011;68121;52.404;5.318;2023-12-04T10:09:37;4.57;;;2.42;;
78778;SDS011;68121;52.404;5.318;2023-12-04T10:12:03;6.93;;;3.03;;
78778;SDS011;68121;52.404;5.318;2023-12-04T10:14:31;6.82;;;2.45;;
78778;SDS011;68121;52.404;5.318;2023-12-04T10:16:57;6.22;;;2.67;;
78778;SDS011;68121;52.404;5.318;2023-12-04T10:19:24;6.05;;;3.35;;
78778;SDS011;68121;52.404;5.318;2023-12-04T10:21:52;5.18;;;3.13;;
78778;SDS011;68121;52.404;5.318;2023-12-04T10:24:27;6.03;;;2.80;;
78778;SDS011;68121;52.404;5.318;2023-12-04T10:26:53;4.93;;;2.13;;
78778;SDS011;68121;52.404;5.318;2023-12-04T10:29:19;3.92;;;1.90;;
78778;SDS011;68121;52.404;5.318;2023-12-04T10:31:45;5.95;;;2.83;;
78778;SDS011;68121;52.404;5.318;2023-12-04T10:34:13;3.78;;;2.30;;
78778;SDS011;68121;52.404;5.318;2023-12-04T10:36:39;5.22;;;2.00;;
78778;SDS011;68121;52.404;5.318;2023-12-04T10:39:05;4.32;;;2.47;;
78778;SDS011;68121;52.404;5.318;2023-12-04T10:41:31;5.28;;;2.42;;
78778;SDS011;68121;52.404;5.318;2023-12-04T10:43:57;3.83;;;2.10;;
78778;SDS011;68121;52.404;5.318;2023-12-04T10:46:26;5.25;;;2.90;;
78778;SDS011;68121;52.404;5.318;2023-12-04T10:48:53;5.97;;;2.28;;
78778;SDS011;68121;52.404;5.318;2023-12-04T10:51:20;5.68;;;2.17;;
78778;SDS011;68121;52.404;5.318;2023-12-04T10:53:49;5.60;;;2.42;;
78778;SDS011;68121;52.404;5.318;2023-12-04T10:56:18;4.20;;;2.55;;
78778;SDS011;68121;52.404;5.318;2023-12-04T10:58:50;3.15;;;1.70;;
78778;SDS011;68121;52.404;5.318;2023-12-04T11:01:18;5.35;;;3.03;;
78778;SDS011;68121;52.404;5.318;2023-12-04T11:03:49;5.68;;;2.50;;
78778;SDS011;68121;52.404;5.318;2023-12-04T11:06:20;3.72;;;2.33;;
78778;SDS011;68121;52.404;5.318;2023-12-04T11:08:50;3.92;;;2.40;;
78778;SDS011;68121;52.404;5.318;2023-12-04T11:11:30;5.53;;;2.83;;
78778;SDS011;68121;52.404;5.318;2023-12-04T11:14:01;4.00;;;2.17;;
78778;SDS011;68121;52.404;5.318;2023-12-04T11:16:45;2.95;;;1.77;;
78778;SDS011;68121;52.404;5.318;2023-12-04T11:19:29;4.85;;;2.53;;
78778;SDS011;68121;52.404;5.318;2023-12-04T11:24:30;2.78;;;1.60;;
78778;SDS011;68121;52.404;5.318;2023-12-04T11:26:57;4.43;;;2.63;;
78778;SDS011;68121;52.404;5.318;2023-12-04T11:29:23;4.82;;;2.30;;
78778;SDS011;68121;52.404;5.318;2023-12-04T11:31:50;4.18;;;2.50;;
78778;SDS011;68121;52.404;5.318;2023-12-04T11:34:16;5.05;;;2.63;;
78778;SDS011;68121;52.404;5.318;2023-12-04T11:36:42;6.07;;;2.80;;
78778;SDS011;68121;52.404;5.318;2023-12-04T11:39:10;7.97;;;2.10;;
78778;SDS011;68121;52.404;5.318;2023-12-04T11:41:36;4.28;;;2.40;;
78778;SDS011;68121;52.404;5.318;2023-12-04T11:44:03;4.15;;;2.20;;
78778;SDS011;68121;52.404;5.318;2023-12-04T11:46:36;8.00;;;3.17;;
78778;SDS011;68121;52.404;5.318;2023-12-04T11:51:51;6.03;;;2.72;;
78778;SDS011;68121;52.404;5.318;2023-12-04T11:54:18;3.70;;;2.30;;
78778;SDS011;68121;52.404;5.318;2023-12-04T11:57:19;6.10;;;2.72;;
78778;SDS011;68121;52.404;5.318;2023-12-04T11:59:50;7.25;;;3.75;;
78778;SDS011;68121;52.404;5.318;2023-12-04T12:02:17;6.65;;;3.05;;
78778;SDS011;68121;52.404;5.318;2023-12-04T12:04:43;6.97;;;3.88;;
78778;SDS011;68121;52.404;5.318;2023-12-04T12:07:10;4.93;;;3.05;;
78778;SDS011;68121;52.404;5.318;2023-12-04T12:09:37;5.78;;;3.00;;
78778;SDS011;68121;52.404;5.318;2023-12-04T12:12:03;3.58;;;2.03;;
78778;SDS011;68121;52.404;5.318;2023-12-04T12:14:30;5.88;;;2.60;;
78778;SDS011;68121;52.404;5.318;2023-12-04T12:17:00;4.97;;;3.55;;
78778;SDS011;68121;52.404;5.318;2023-12-04T12:19:29;5.95;;;2.67;;
78778;SDS011;68121;52.404;5.318;2023-12-04T12:21:55;5.50;;;2.95;;
78778;SDS011;68121;52.404;5.318;2023-12-04T12:24:23;5.90;;;3.20;;
78778;SDS011;68121;52.404;5.318;2023-12-04T12:26:50;7.13;;;2.95;;
78778;SDS011;68121;52.404;5.318;2023-12-04T12:29:16;6.03;;;3.13;;
78778;SDS011;68121;52.404;5.318;2023-12-04T12:31:43;5.22;;;3.28;;
78778;SDS011;68121;52.404;5.318;2023-12-04T12:34:09;6.72;;;3.05;;
78778;SDS011;68121;52.404;5.318;2023-12-04T12:36:35;5.50;;;2.70;;
78778;SDS011;68121;52.404;5.318;2023-12-04T12:39:01;6.93;;;2.60;;
78778;SDS011;68121;52.404;5.318;2023-12-04T12:41:29;6.13;;;3.08;;
78778;SDS011;68121;52.404;5.318;2023-12-04T12:43:56;5.88;;;3.28;;
78778;SDS011;68121;52.404;5.318;2023-12-04T12:46:22;7.95;;;4.03;;
78778;SDS011;68121;52.404;5.318;2023-12-04T12:48:48;6.75;;;3.15;;
78778;SDS011;68121;52.404;5.318;2023-12-04T12:51:14;3.20;;;2.75;;
78778;SDS011;68121;52.404;5.318;2023-12-04T12:53:40;7.63;;;3.13;;
78778;SDS011;68121;52.404;5.318;2023-12-04T12:56:09;6.82;;;3.15;;
78778;SDS011;68121;52.404;5.318;2023-12-04T12:58:35;11.05;;;2.97;;
78778;SDS011;68121;52.404;5.318;2023-12-04T13:01:01;8.30;;;3.85;;
78778;SDS011;68121;52.404;5.318;2023-12-04T13:03:27;6.35;;;3.85;;
78778;SDS011;68121;52.404;5.318;2023-12-04T13:05:56;8.50;;;3.67;;
78778;SDS011;68121;52.404;5.318;2023-12-04T13:08:23;5.05;;;3.45;;
78778;SDS011;68121;52.404;5.318;2023-12-04T13:10:49;8.70;;;3.45;;
78778;SDS011;68121;52.404;5.318;2023-12-04T13:13:16;6.05;;;3.80;;
78778;SDS011;68121;52.404;5.318;2023-12-04T13:15:42;5.40;;;3.30;;
78778;SDS011;68121;52.404;5.318;2023-12-04T13:18:08;7.03;;;3.30;;
78778;SDS011;68121;52.404;5.318;2023-12-04T13:20:35;7.35;;;3.58;;
78778;SDS011;68121;52.404;5.318;2023-12-04T13:23:01;6.28;;;3.03;;
78778;SDS011;68121;52.404;5.318;2023-12-04T13:25:27;6.90;;;2.92;;
78778;SDS011;68121;52.404;5.318;2023-12-04T13:27:53;7.05;;;2.88;;
78778;SDS011;68121;52.404;5.318;2023-12-04T13:30:20;7.90;;;3.30;;
78778;SDS011;68121;52.404;5.318;2023-12-04T13:32:46;4.50;;;2.50;;
78778;SDS011;68121;52.404;5.318;2023-12-04T13:35:12;7.32;;;3.78;;
78778;SDS011;68121;52.404;5.318;2023-12-04T13:37:38;6.25;;;2.33;;
78778;SDS011;68121;52.404;5.318;2023-12-04T13:40:05;4.80;;;2.75;;
78778;SDS011;68121;52.404;5.318;2023-12-04T13:42:41;7.18;;;3.05;;
78778;SDS011;68121;52.404;5.318;2023-12-04T13:45:26;5.10;;;3.13;;
78778;SDS011;68121;52.404;5.318;2023-12-04T13:47:52;7.93;;;3.35;;
78778;SDS011;68121;52.404;5.318;2023-12-04T13:50:19;8.18;;;3.17;;
78778;SDS011;68121;52.404;5.318;2023-12-04T13:52:45;5.93;;;3.28;;
78778;SDS011;68121;52.404;5.318;2023-12-04T13:55:20;5.18;;;3.42;;
78778;SDS011;68121;52.404;5.318;2023-12-04T13:57:54;7.28;;;2.47;;
78778;SDS011;68121;52.404;5.318;2023-12-04T14:00:35;5.10;;;2.15;;
78778;SDS011;68121;52.404;5.318;2023-12-04T14:03:01;4.50;;;2.85;;
78778;SDS011;68121;52.404;5.318;2023-12-04T14:05:31;5.32;;;2.83;;
78778;SDS011;68121;52.404;5.318;2023-12-04T14:07:57;5.70;;;3.38;;
78778;SDS011;68121;52.404;5.318;2023-12-04T14:10:24;5.15;;;2.53;;
78778;SDS011;68121;52.404;5.318;2023-12-04T14:12:54;5.25;;;3.05;;
78778;SDS011;68121;52.404;5.318;2023-12-04T14:15:20;8.45;;;3.60;;
78778;SDS011;68121;52.404;5.318;2023-12-04T14:17:46;6.70;;;3.33;;
78778;SDS011;68121;52.404;5.318;2023-12-04T14:20:12;4.13;;;2.53;;
78778;SDS011;68121;52.404;5.318;2023-12-04T14:22:42;5.55;;;3.10;;
78778;SDS011;68121;52.404;5.318;2023-12-04T14:25:10;5.57;;;2.90;;
78778;SDS011;68121;52.404;5.318;2023-12-04T14:27:36;6.05;;;2.97;;
78778;SDS011;68121;52.404;5.318;2023-12-04T14:30:05;5.75;;;3.10;;
78778;SDS011;68121;52.404;5.318;2023-12-04T14:32:34;4.43;;;2.40;;
78778;SDS011;68121;52.404;5.318;2023-12-04T14:35:01;4.85;;;2.83;;
78778;SDS011;68121;52.404;5.318;2023-12-04T14:37:29;7.53;;;3.55;;
78778;SDS011;68121;52.404;5.318;2023-12-04T14:39:56;8.63;;;3.85;;
78778;SDS011;68121;52.404;5.318;2023-12-04T14:42:23;6.00;;;2.90;;
78778;SDS011;68121;52.404;5.318;2023-12-04T14:44:49;5.82;;;3.03;;
78778;SDS011;68121;52.404;5.318;2023-12-04T14:47:16;6.80;;;3.13;;
78778;SDS011;68121;52.404;5.318;2023-12-04T14:49:42;5.93;;;2.63;;